Accueil
METAR-TAF:

METAR-TAF

Aéroports :

Aéroport du grand Binghamton

Binghamton, New York, États-Unis

latitude: 42-12-28N, longitude: 075-58-53W, altitude: 496 m

Observation

Le bulletin a été fait il y a 11 minutes, à 01:53 UTC
Vent calme
Température -4°C
Humidité 74%
Pression 1019 hPa
Visibilité: 16.1 km
Ciel couvert à une hauteur de 2000 ft

METAR: KBGM 110153Z 00000KT 10SM OVC020 M04/M08 A3010 RMK AO2 SLP216 T10441083

Heure: 21:04 (02:04 UTC)

Prévision

Le bulletin a été fait il y a 2 heures et 38 minutes, à 23:26 UTC
Prévision valable du 11 à 00 UTC au 11 à 24 UTC
Vent 5 kt de nord
Visibilité: 10 km
Nuages fragmentés à une hauteur de 2500 ft
A partir de 11 à 1600 UTC
Vent 6 kt de sud
Visibilité: 10 km
Nuages fragmentés à une hauteur de 7000 ft

TAF: KBGM 102326Z 1100/1124 36005KT P6SM BKN025 FM111600 19006KT P6SM BKN070

Observations et prévisions météorologiques de plus de 4000 aéroports (messages METAR et TAF).

Les stations disponibles sont représentées par des disques jaunes et rouges sur la carte.

Passer la souris dessus pour voir le nom de la station.

Cliquer dessus pour voir les observations et prévisions météorologiques.

Pour changer de carte: cliquez sur les boutons verts avec une croix noire pour zoomer, sur le bouton vert avec un tiret pour effectuer un zoom arrière, ou sur les flèches vertes pour les cartes adjacentes.


METAR-TAF: